Time;durP1;ratioP1;P1;durP2;ratioP2;P2;SDS_P1;SDS_P2;PMS_P1;PMS_P2;Temp;Humidity;BMP_temperature;BMP_pressure;BME280_temperature;BME280_humidity;BME280_pressure;Samples;Min_cycle;Max_cycle;Signal;HPM_P1;HPM_P2
2023/12/14 00:01:25;;;;;;;12.10;5.33;;;6.40;99.90;;;7.21;100.00;97025.53;5051978;28;20578;-76
2023/12/14 00:03:54;;;;;;;8.93;4.90;;;6.40;99.90;;;7.22;100.00;97029.69;5055475;28;20464;-77
2023/12/14 00:06:23;;;;;;;10.70;5.30;;;6.40;99.90;;;7.22;100.00;97032.31;5054809;28;20461;-77
2023/12/14 00:08:51;;;;;;;8.90;5.10;;;6.40;99.90;;;7.21;100.00;97035.13;5053202;28;20556;-77
2023/12/14 00:11:21;;;;;;;10.00;5.03;;;6.30;99.90;;;7.17;100.00;97033.88;5055075;28;20468;-77
2023/12/14 00:13:50;;;;;;;10.40;5.40;;;6.30;99.90;;;7.19;100.00;97037.88;5053174;28;20514;-77
2023/12/14 00:16:18;;;;;;;9.23;4.83;;;6.40;99.90;;;7.20;100.00;97043.91;5053831;28;20465;-76
2023/12/14 00:18:47;;;;;;;11.27;5.00;;;6.30;99.90;;;7.22;100.00;97045.31;5054585;28;21167;-76
2023/12/14 00:21:15;;;;;;;13.47;4.43;;;6.40;99.90;;;7.19;100.00;97050.88;5052416;28;21109;-77
2023/12/14 00:23:44;;;;;;;8.90;4.80;;;6.30;99.90;;;7.20;100.00;97057.69;5053374;28;20457;-77
2023/12/14 00:26:12;;;;;;;11.60;5.47;;;6.30;99.90;;;7.22;100.00;97060.91;5054939;28;20468;-77
2023/12/14 00:28:42;;;;;;;11.10;4.90;;;6.40;99.90;;;7.21;100.00;97067.13;5053296;28;20448;-76
2023/12/14 00:31:11;;;;;;;6.90;5.10;;;6.40;99.90;;;7.18;100.00;97066.69;5052739;28;20460;-77
2023/12/14 00:33:40;;;;;;;12.03;5.17;;;6.40;99.90;;;7.12;100.00;97076.03;5053615;28;20465;-77
2023/12/14 00:36:09;;;;;;;8.67;5.20;;;6.30;99.90;;;7.14;100.00;97078.47;5051905;28;20518;-76
2023/12/14 00:38:39;;;;;;;8.33;5.07;;;6.30;99.90;;;7.14;100.00;97078.47;5052533;28;20827;-76
2023/12/14 00:41:08;;;;;;;8.50;5.20;;;6.30;99.90;;;7.13;100.00;97077.66;5051334;28;20471;-76
2023/12/14 00:43:38;;;;;;;13.50;4.80;;;6.30;99.90;;;7.14;100.00;97092.25;5051334;28;20532;-77
2023/12/14 00:46:09;;;;;;;8.97;5.47;;;6.40;99.90;;;7.14;100.00;97101.84;5051329;28;21037;-76
2023/12/14 00:48:37;;;;;;;8.90;3.93;;;6.30;99.90;;;7.11;100.00;97103.03;5050883;28;21030;-77
2023/12/14 00:51:06;;;;;;;10.73;4.50;;;6.20;99.90;;;7.13;100.00;97095.84;5055393;28;21209;-77
2023/12/14 00:53:35;;;;;;;20.50;5.67;;;6.30;99.90;;;7.16;100.00;97095.47;5051276;28;20468;-77
2023/12/14 00:56:04;;;;;;;7.80;4.93;;;6.30;99.90;;;7.15;100.00;97119.84;5056002;28;20519;-77
2023/12/14 00:58:32;;;;;;;8.53;5.30;;;6.30;99.90;;;7.18;100.00;97113.47;5051793;28;20487;-77
2023/12/14 01:01:01;;;;;;;7.13;4.73;;;6.30;99.90;;;7.15;100.00;97117.25;5051902;28;20475;-77
2023/12/14 01:03:32;;;;;;;11.23;5.40;;;6.40;99.90;;;7.14;100.00;97115.66;5050509;28;20533;-76
2023/12/14 01:06:00;;;;;;;9.60;5.20;;;6.40;99.90;;;7.15;100.00;97124.25;5053344;28;20472;-77
2023/12/14 01:08:29;;;;;;;8.27;4.73;;;6.40;99.90;;;7.11;100.00;97128.22;5051586;28;20457;-77
2023/12/14 01:10:58;;;;;;;9.50;5.37;;;6.40;99.90;;;7.13;100.00;97127.03;5051915;28;20540;-77
2023/12/14 01:13:26;;;;;;;9.43;5.27;;;6.30;99.90;;;7.14;100.00;97126.06;5051508;28;20460;-77
2023/12/14 01:15:55;;;;;;;13.70;4.63;;;6.40;99.90;;;7.14;100.00;97127.84;5051596;28;20527;-77
2023/12/14 01:18:24;;;;;;;9.30;4.73;;;6.30;99.90;;;7.17;100.00;97128.28;5050219;28;20494;-77
2023/12/14 01:20:54;;;;;;;8.33;5.43;;;6.30;99.90;;;7.15;100.00;97132.06;5051662;28;20473;-77
2023/12/14 01:23:23;;;;;;;6.00;4.50;;;6.30;99.90;;;7.13;100.00;97145.22;5052969;28;20496;-76
2023/12/14 01:25:51;;;;;;;7.50;4.93;;;6.30;99.90;;;7.15;100.00;97145.84;5050660;28;20596;-77
2023/12/14 01:28:20;;;;;;;8.93;5.27;;;6.30;99.90;;;7.12;100.00;97148.81;5052940;28;20557;-76
2023/12/14 01:30:48;;;;;;;8.10;4.87;;;6.20;99.90;;;7.08;100.00;97150.19;5054148;28;20529;-76
2023/12/14 01:33:17;;;;;;;14.90;5.07;;;6.20;99.90;;;7.01;100.00;97157.91;5051574;28;20473;-77
2023/12/14 01:35:46;;;;;;;8.00;5.10;;;6.10;99.90;;;7.04;100.00;97161.97;5051706;28;20530;-76
2023/12/14 01:38:16;;;;;;;7.80;4.30;;;6.10;99.90;;;6.99;100.00;97161.69;5051281;28;20499;-76
2023/12/14 01:40:44;;;;;;;7.83;4.60;;;6.10;99.90;;;6.98;100.00;97167.88;5054133;28;20467;-76
2023/12/14 01:43:13;;;;;;;6.87;4.73;;;6.10;99.90;;;6.97;100.00;97179.28;5054443;28;20548;-77
2023/12/14 01:45:42;;;;;;;7.47;5.30;;;6.10;99.90;;;6.93;100.00;97183.25;5058645;28;20459;-76
2023/12/14 01:48:11;;;;;;;10.13;4.83;;;6.10;99.90;;;6.89;100.00;97187.19;5055376;28;20979;-77
2023/12/14 01:50:40;;;;;;;7.20;4.40;;;6.00;99.90;;;6.92;100.00;97177.22;5056136;28;20484;-76
2023/12/14 01:53:08;;;;;;;8.07;4.83;;;6.10;99.90;;;6.95;100.00;97194.25;5055606;28;20472;-77
2023/12/14 01:55:38;;;;;;;5.50;4.30;;;6.00;99.90;;;6.93;100.00;97204.84;5056684;28;20448;-77
2023/12/14 01:58:07;;;;;;;10.77;5.00;;;6.00;99.90;;;6.92;100.00;97205.81;5054632;28;20992;-76
2023/12/14 02:00:44;;;;;;;10.57;4.90;;;6.00;99.90;;;6.91;100.00;97208.59;5055684;28;20663;-77
2023/12/14 02:03:13;;;;;;;11.53;5.43;;;6.10;99.90;;;6.84;100.00;97213.72;5055142;28;20504;-76
2023/12/14 02:05:41;;;;;;;8.57;4.77;;;6.00;99.90;;;6.87;100.00;97223.75;5055837;28;21406;-76
2023/12/14 02:08:10;;;;;;;18.60;5.03;;;6.10;99.90;;;6.91;100.00;97226.78;5055313;28;20460;-77
2023/12/14 02:10:40;;;;;;;8.80;4.47;;;6.10;99.90;;;6.95;100.00;97233.22;5055009;28;20972;-77
2023/12/14 02:13:09;;;;;;;8.43;5.10;;;6.10;99.90;;;6.92;100.00;97236.19;5055194;28;20477;-77
2023/12/14 02:15:38;;;;;;;10.70;4.70;;;6.10;99.90;;;6.94;100.00;97240.22;5055430;28;20465;-77
2023/12/14 02:18:07;;;;;;;9.17;5.40;;;6.10;99.90;;;6.96;100.00;97245.25;5053096;28;20472;-76
2023/12/14 02:20:35;;;;;;;7.57;4.67;;;6.20;99.90;;;6.94;100.00;97247.22;5056241;28;20460;-77
2023/12/14 02:23:05;;;;;;;11.57;4.20;;;6.10;99.90;;;6.93;100.00;97245.63;5053955;28;20945;-77
2023/12/14 02:25:34;;;;;;;13.80;5.40;;;6.10;99.90;;;6.95;100.00;97256.63;5055162;28;20457;-77
2023/12/14 02:28:03;;;;;;;9.47;5.50;;;6.10;99.90;;;6.89;100.00;97255.56;5056511;28;20515;-77
2023/12/14 02:30:31;;;;;;;7.77;4.80;;;6.00;99.90;;;6.92;100.00;97256.97;5053994;28;20464;-77
2023/12/14 02:32:59;;;;;;;9.33;4.33;;;6.10;99.90;;;6.95;100.00;97264.41;5056180;28;20468;-76
2023/12/14 02:35:28;;;;;;;9.33;5.33;;;6.10;99.90;;;6.93;100.00;97266.41;5055086;28;20522;-76
2023/12/14 02:37:57;;;;;;;6.50;4.70;;;6.00;99.90;;;6.91;100.00;97273.56;5056227;28;20474;-77
2023/12/14 02:40:27;;;;;;;8.60;4.90;;;6.00;99.90;;;6.90;100.00;97266.78;5057228;28;20464;-76
2023/12/14 02:42:55;;;;;;;11.50;5.00;;;6.00;99.90;;;6.92;100.00;97277.78;5056144;28;20491;-76
2023/12/14 02:45:24;;;;;;;14.83;5.77;;;6.00;99.90;;;6.96;100.00;97290.22;5054640;28;20488;-76
2023/12/14 02:47:54;;;;;;;9.70;4.57;;;6.10;99.90;;;6.96;100.00;97286.81;5054564;28;20596;-76
2023/12/14 02:50:22;;;;;;;13.03;5.37;;;6.10;99.90;;;6.96;100.00;97286.81;5054571;28;20479;-76
2023/12/14 02:52:51;;;;;;;7.40;4.77;;;6.10;99.90;;;6.95;100.00;97293.81;5054198;28;20469;-77
2023/12/14 02:55:20;;;;;;;18.50;5.83;;;6.10;99.90;;;6.97;100.00;97298.84;5054139;28;20498;-78
2023/12/14 02:57:50;;;;;;;6.63;4.90;;;6.10;99.90;;;6.97;100.00;97304.03;5054413;28;20544;-76
2023/12/14 03:00:19;;;;;;;8.27;4.80;;;6.20;99.90;;;6.98;100.00;97308.22;5053349;28;20469;-77
2023/12/14 03:02:49;;;;;;;9.17;4.23;;;6.20;99.90;;;6.94;100.00;97309.59;5052446;28;20465;-77
2023/12/14 03:05:17;;;;;;;8.90;4.83;;;6.20;99.90;;;6.90;100.00;97314.34;5053493;28;21043;-76
2023/12/14 03:07:46;;;;;;;5.53;4.57;;;6.20;99.90;;;6.92;100.00;97309.78;5053147;28;20510;-76
2023/12/14 03:10:15;;;;;;;10.00;4.80;;;6.20;99.90;;;6.92;100.00;97312.38;5053465;28;20473;-77
2023/12/14 03:12:43;;;;;;;9.80;4.60;;;6.10;99.90;;;6.92;100.00;97314.16;5055277;28;20454;-76
2023/12/14 03:15:13;;;;;;;8.40;4.93;;;6.20;99.90;;;6.95;100.00;97321.59;5052441;28;20471;-76
2023/12/14 03:17:42;;;;;;;9.13;4.60;;;6.10;99.90;;;6.96;100.00;97318.81;5054418;28;20460;-76
2023/12/14 03:20:14;;;;;;;6.40;4.53;;;6.10;99.90;;;6.96;100.00;97318.00;5054213;28;20468;-77
2023/12/14 03:22:42;;;;;;;11.20;4.57;;;6.20;99.90;;;6.98;100.00;97316.81;5054215;28;20466;-77
2023/12/14 03:25:11;;;;;;;5.10;4.07;;;6.20;99.90;;;6.96;100.00;97320.59;5053510;28;20465;-77
2023/12/14 03:27:40;;;;;;;9.57;4.90;;;6.20;99.90;;;6.98;100.00;97323.81;5056515;28;20956;-77
2023/12/14 03:30:09;;;;;;;15.23;4.77;;;6.10;99.90;;;6.97;100.00;97319.63;5053488;28;20465;-77
2023/12/14 03:32:40;;;;;;;10.13;4.37;;;6.10;99.90;;;6.92;100.00;97322.75;5053961;28;20492;-76
2023/12/14 03:35:09;;;;;;;7.40;4.20;;;6.10;99.90;;;6.92;100.00;97332.34;5052670;28;20473;-77
2023/12/14 03:37:38;;;;;;;6.77;4.17;;;6.10;99.90;;;6.92;100.00;97334.94;5052018;28;21064;-78
2023/12/14 03:40:08;;;;;;;9.30;4.60;;;6.10;99.90;;;6.91;100.00;97330.72;5051983;28;20480;-77
2023/12/14 03:42:37;;;;;;;6.07;4.23;;;6.10;99.90;;;6.91;100.00;97346.31;5051378;28;20450;-76
2023/12/14 03:45:07;;;;;;;6.13;4.40;;;6.10;99.90;;;6.88;100.00;97352.69;5051806;28;20503;-77
2023/12/14 03:47:36;;;;;;;5.97;3.90;;;6.00;99.90;;;6.85;100.00;97354.84;5052765;28;20484;-78
2023/12/14 03:50:09;;;;;;;5.10;3.80;;;6.00;99.90;;;6.86;100.00;97359.06;5052790;28;20492;-76
2023/12/14 03:52:37;;;;;;;9.43;4.07;;;6.10;99.90;;;6.87;100.00;97366.66;5051455;28;20466;-77
2023/12/14 03:55:08;;;;;;;11.37;5.20;;;6.10;99.90;;;6.91;100.00;97367.91;5050883;28;20987;-77
2023/12/14 03:57:37;;;;;;;8.33;4.60;;;6.10;99.90;;;6.88;100.00;97373.47;5051199;28;20518;-76
2023/12/14 04:00:08;;;;;;;15.40;5.13;;;6.10;99.90;;;6.86;100.00;97385.03;5050453;28;20521;-78
2023/12/14 04:02:37;;;;;;;13.93;4.97;;;6.10;99.90;;;6.82;100.00;97383.78;5052065;28;20460;-76
2023/12/14 04:05:09;;;;;;;7.00;5.20;;;6.10;99.90;;;6.85;100.00;97388.63;5049031;28;20611;-76
2023/12/14 04:07:40;;;;;;;12.53;4.73;;;6.20;99.90;;;6.84;100.00;97394.78;5049714;28;20510;-76
2023/12/14 04:10:10;;;;;;;6.73;4.07;;;6.00;99.90;;;6.75;100.00;97406.28;5049631;28;20472;-76
2023/12/14 04:12:40;;;;;;;7.50;4.60;;;5.90;99.90;;;6.78;100.00;97408.50;5051152;28;20480;-77
2023/12/14 04:15:11;;;;;;;10.60;3.90;;;5.90;99.90;;;6.72;100.00;97411.84;5051462;28;20457;-78
2023/12/14 04:17:40;;;;;;;8.03;4.33;;;5.90;99.90;;;6.67;100.00;97411.53;5050406;28;20468;-76
2023/12/14 04:20:11;;;;;;;11.27;4.80;;;5.80;99.90;;;6.66;100.00;97422.94;5054103;28;20468;-76
2023/12/14 04:22:40;;;;;;;5.10;4.30;;;5.80;99.90;;;6.63;100.00;97418.09;5052419;28;20584;-76
2023/12/14 04:25:09;;;;;;;6.17;3.90;;;5.70;99.90;;;6.61;100.00;97430.44;5051278;28;20971;-76
2023/12/14 04:27:37;;;;;;;7.03;4.70;;;5.80;99.90;;;6.55;100.00;97430.19;5053234;28;20465;-76
2023/12/14 04:30:10;;;;;;;6.93;4.47;;;5.70;99.90;;;6.57;100.00;97432.59;5051451;28;20465;-76
2023/12/14 04:32:39;;;;;;;6.83;4.10;;;5.70;99.90;;;6.59;100.00;97436.63;5052731;28;20464;-77
2023/12/14 04:35:10;;;;;;;6.53;4.27;;;5.70;99.90;;;6.56;100.00;97436.16;5052415;28;20542;-77
2023/12/14 04:37:38;;;;;;;8.00;3.90;;;5.80;99.90;;;6.57;100.00;97443.78;5053073;28;20567;-76
2023/12/14 04:40:09;;;;;;;6.27;4.47;;;5.80;99.90;;;6.55;100.00;97445.78;5053221;28;20515;-76
2023/12/14 04:42:38;;;;;;;7.77;3.97;;;5.80;99.90;;;6.56;100.00;97456.94;5053235;28;20472;-76
2023/12/14 04:45:08;;;;;;;16.97;4.87;;;5.80;99.90;;;6.55;100.00;97461.34;5050696;28;20503;-76
2023/12/14 04:47:37;;;;;;;12.70;4.97;;;5.80;99.90;;;6.55;100.00;97463.94;5050690;28;20928;-77
2023/12/14 04:50:07;;;;;;;10.97;7.67;;;5.70;99.90;;;6.53;100.00;97459.88;5052102;28;20544;-77
2023/12/14 04:52:37;;;;;;;13.07;4.53;;;5.70;99.90;;;6.56;100.00;97462.13;5053058;28;20467;-76
2023/12/14 04:55:08;;;;;;;6.60;4.30;;;5.80;99.90;;;6.60;100.00;97471.19;5051620;28;20460;-77
2023/12/14 04:57:37;;;;;;;5.67;4.17;;;5.80;99.90;;;6.62;100.00;97476.22;5052072;28;20502;-77
2023/12/14 05:00:08;;;;;;;9.37;4.93;;;5.80;99.90;;;6.60;100.00;97478.97;5051667;28;20468;-76
2023/12/14 05:02:36;;;;;;;7.57;4.23;;;5.80;99.90;;;6.59;100.00;97478.16;5051971;28;20464;-77
2023/12/14 05:05:06;;;;;;;9.77;4.63;;;5.80;99.90;;;6.59;100.00;97485.97;5051794;28;20495;-76
2023/12/14 05:07:34;;;;;;;6.40;3.90;;;5.80;99.90;;;6.58;100.00;97494.75;5052845;28;21012;-77
2023/12/14 05:10:06;;;;;;;11.63;3.73;;;5.80;99.90;;;6.58;100.00;97499.16;5051889;28;20456;-77
2023/12/14 05:12:34;;;;;;;9.23;4.60;;;5.80;99.90;;;6.62;100.00;97504.78;5052200;28;20461;-77
2023/12/14 05:15:04;;;;;;;7.33;4.30;;;5.80;99.90;;;6.61;100.00;97505.78;5052050;28;20457;-76
2023/12/14 05:17:34;;;;;;;8.57;4.40;;;5.80;99.90;;;6.60;100.00;97512.75;5057192;28;20547;-76
2023/12/14 05:20:04;;;;;;;6.83;4.00;;;5.80;99.90;;;6.59;100.00;97514.53;5056113;28;20963;-76
2023/12/14 05:22:32;;;;;;;11.17;5.37;;;5.80;99.90;;;6.60;100.00;97523.13;5054650;28;20514;-76
2023/12/14 05:25:01;;;;;;;7.13;4.80;;;5.80;99.90;;;6.61;100.00;97523.94;5054538;28;20583;-76
2023/12/14 05:27:31;;;;;;;9.73;4.40;;;5.80;99.90;;;6.62;100.00;97528.19;5052897;28;20491;-77
2023/12/14 05:30:00;;;;;;;8.00;4.90;;;5.80;99.90;;;6.59;100.00;97534.53;5055780;28;20456;-77
2023/12/14 05:32:28;;;;;;;13.03;5.10;;;5.80;99.90;;;6.56;100.00;97527.06;5055452;28;20457;-77
2023/12/14 05:34:57;;;;;;;11.57;4.60;;;5.80;99.90;;;6.55;100.00;97541.88;5052806;28;20456;-76
2023/12/14 05:37:26;;;;;;;17.20;4.47;;;5.70;99.90;;;6.53;100.00;97537.81;5055445;28;20517;-77
2023/12/14 05:39:54;;;;;;;13.80;5.60;;;5.80;99.90;;;6.54;100.00;97542.84;5054353;28;20456;-77
2023/12/14 05:42:24;;;;;;;15.67;4.77;;;5.80;99.90;;;6.53;100.00;97536.03;5054884;28;20495;-76
2023/12/14 05:44:54;;;;;;;25.10;5.40;;;5.80;99.90;;;6.56;100.00;97546.06;5057999;28;20516;-76
2023/12/14 05:47:23;;;;;;;6.77;4.77;;;5.80;99.90;;;6.58;100.00;97544.13;5057903;28;20578;-76
2023/12/14 05:49:51;;;;;;;13.93;5.23;;;5.80;99.90;;;6.57;100.00;97562.44;5057766;28;20497;-77
2023/12/14 05:52:20;;;;;;;15.43;5.87;;;5.80;99.90;;;6.52;100.00;97549.19;5055007;28;20465;-76
2023/12/14 05:54:49;;;;;;;18.20;5.80;;;5.70;99.90;;;6.43;100.00;97561.41;5058526;28;20470;-76
2023/12/14 05:57:18;;;;;;;8.57;5.33;;;5.60;99.90;;;6.42;100.00;97570.19;5059492;28;20496;-77
2023/12/14 05:59:47;;;;;;;10.50;5.13;;;5.60;99.90;;;6.43;100.00;97587.38;5057067;28;20480;-76
2023/12/14 06:02:17;;;;;;;13.90;5.00;;;5.60;99.90;;;6.41;100.00;97584.16;5056393;28;20492;-76
2023/12/14 06:04:46;;;;;;;13.90;6.10;;;5.70;99.90;;;6.38;100.00;97584.50;5056175;28;20484;-76
2023/12/14 06:07:16;;;;;;;12.00;5.40;;;5.70;99.90;;;6.35;100.00;97582.22;5056849;28;20541;-76
2023/12/14 06:09:45;;;;;;;9.50;5.37;;;5.60;99.90;;;6.36;100.00;97596.03;5053786;28;20952;-76
2023/12/14 06:12:14;;;;;;;14.40;5.60;;;5.60;99.90;;;6.39;100.00;97600.88;5056008;28;20468;-76
2023/12/14 06:14:44;;;;;;;8.90;5.03;;;5.70;99.90;;;6.36;100.00;97607.22;5058146;28;20470;-77
2023/12/14 06:17:13;;;;;;;12.77;4.40;;;5.60;99.90;;;6.39;100.00;97606.06;5058012;28;20509;-76
2023/12/14 06:19:43;;;;;;;14.93;6.27;;;5.60;99.90;;;6.36;100.00;97611.59;5055603;28;20465;-76
2023/12/14 06:22:12;;;;;;;9.20;5.53;;;5.50;99.90;;;6.37;100.00;97615.84;5056814;28;20543;-76
2023/12/14 06:24:41;;;;;;;14.37;4.87;;;5.50;99.90;;;6.36;100.00;97628.00;5054526;28;20466;-76
2023/12/14 06:27:10;;;;;;;7.53;4.53;;;5.50;99.90;;;6.36;100.00;97632.38;5055847;28;20469;-76
2023/12/14 06:29:39;;;;;;;8.37;4.97;;;5.40;99.90;;;6.35;100.00;97649.75;5055088;28;20548;-76
2023/12/14 06:32:08;;;;;;;9.60;5.73;;;5.50;99.90;;;6.34;100.00;97653.34;5057281;28;20468;-76
2023/12/14 06:34:36;;;;;;;15.67;5.50;;;5.50;99.90;;;6.37;100.00;97655.59;5056745;28;20461;-76
2023/12/14 06:37:07;;;;;;;17.57;6.20;;;5.60;99.90;;;6.39;100.00;97653.63;5055524;28;20543;-76
2023/12/14 06:39:35;;;;;;;13.20;5.50;;;5.60;99.90;;;6.40;100.00;97655.25;5056186;28;20460;-76
2023/12/14 06:42:05;;;;;;;23.60;5.97;;;5.60;99.90;;;6.43;100.00;97670.47;5057132;28;20510;-76
2023/12/14 06:44:33;;;;;;;9.13;5.67;;;5.60;99.90;;;6.41;100.00;97666.44;5055274;28;20467;-76
2023/12/14 06:47:06;;;;;;;14.40;5.60;;;5.60;99.90;;;6.44;100.00;97669.50;5054670;28;20545;-76
2023/12/14 06:49:35;;;;;;;8.13;5.10;;;5.60;99.90;;;6.47;100.00;97676.16;5054715;28;20461;-76
2023/12/14 06:52:04;;;;;;;10.57;5.60;;;5.60;99.90;;;6.44;100.00;97676.50;5057137;28;20496;-76
2023/12/14 06:54:34;;;;;;;9.47;6.17;;;5.60;99.90;;;6.44;100.00;97679.09;5056549;28;20471;-76
2023/12/14 06:57:03;;;;;;;15.13;5.63;;;5.60;99.90;;;6.45;100.00;97686.72;5054321;28;20476;-76
2023/12/14 06:59:31;;;;;;;18.80;6.00;;;5.70;99.90;;;6.41;100.00;97693.22;5056809;28;20473;-76
2023/12/14 07:02:00;;;;;;;13.33;5.70;;;5.60;99.90;;;6.43;100.00;97693.84;5056041;28;20475;-76
2023/12/14 07:04:29;;;;;;;10.30;4.97;;;5.70;99.90;;;6.48;100.00;97701.16;5055365;28;20960;-76
2023/12/14 07:06:58;;;;;;;11.13;5.37;;;5.70;99.90;;;6.47;100.00;97702.94;5056430;28;20594;-76
2023/12/14 07:09:26;;;;;;;11.90;4.53;;;5.60;99.90;;;6.50;100.00;97709.56;5056574;28;20464;-76
2023/12/14 07:11:57;;;;;;;8.70;5.70;;;5.60;99.90;;;6.50;100.00;97717.34;5054728;28;20475;-76
2023/12/14 07:14:25;;;;;;;15.30;5.97;;;5.70;99.90;;;6.52;100.00;97721.44;5057131;28;20833;-76
2023/12/14 07:16:54;;;;;;;8.93;5.20;;;5.70;99.90;;;6.54;100.00;97732.44;5054988;28;20998;-76
2023/12/14 07:19:23;;;;;;;10.10;5.87;;;5.70;99.90;;;6.53;100.00;97733.41;5057627;28;20474;-76
2023/12/14 07:21:52;;;;;;;11.20;4.87;;;5.60;99.90;;;6.49;100.00;97742.50;5054696;28;20487;-76
2023/12/14 07:24:20;;;;;;;14.10;5.57;;;5.60;99.90;;;6.50;100.00;97744.16;5056924;28;20832;-76
2023/12/14 07:26:50;;;;;;;10.13;5.83;;;5.60;99.90;;;6.50;100.00;97749.34;5055501;28;20626;-76
2023/12/14 07:29:21;;;;;;;12.27;6.73;;;5.60;99.90;;;6.52;100.00;97751.78;5055650;28;20460;-76
2023/12/14 07:31:50;;;;;;;9.10;5.57;;;5.70;99.90;;;6.54;100.00;97760.19;5055239;28;20460;-76
2023/12/14 07:34:20;;;;;;;8.47;4.70;;;5.70;99.90;;;6.57;100.00;97760.66;5056202;28;20982;-76
2023/12/14 07:36:48;;;;;;;9.03;5.67;;;5.70;99.90;;;6.57;100.00;97772.84;5053850;28;20469;-76
2023/12/14 07:39:17;;;;;;;11.77;5.30;;;5.70;99.90;;;6.58;100.00;97772.69;5055902;28;20962;-76
2023/12/14 07:41:46;;;;;;;10.33;5.30;;;5.70;99.90;;;6.54;100.00;97781.78;5056422;28;20464;-76
2023/12/14 07:44:15;;;;;;;8.57;5.23;;;5.60;99.90;;;6.54;100.00;97802.56;5053710;28;20464;-76
2023/12/14 07:46:44;;;;;;;10.17;5.43;;;5.70;99.90;;;6.52;100.00;97796.75;5056040;28;20994;-76
2023/12/14 07:49:13;;;;;;;18.00;5.90;;;5.70;99.90;;;6.52;100.00;97799.34;5056378;28;20476;-76
2023/12/14 07:51:42;;;;;;;9.60;5.30;;;5.70;99.90;;;6.53;100.00;97794.94;5056230;28;20461;-76
2023/12/14 07:54:11;;;;;;;7.07;5.47;;;5.70;99.90;;;6.55;100.00;97804.19;5053309;28;20461;-75
2023/12/14 07:56:39;;;;;;;11.93;5.27;;;5.80;99.90;;;6.56;100.00;97812.78;5054881;28;20476;-76
2023/12/14 07:59:09;;;;;;;10.13;5.73;;;5.70;99.90;;;6.59;100.00;97809.88;5054796;28;20513;-76
2023/12/14 08:01:38;;;;;;;8.03;5.63;;;5.80;99.90;;;6.58;100.00;97814.25;5056127;28;20461;-76
2023/12/14 08:04:11;;;;;;;15.90;5.17;;;5.80;99.90;;;6.56;100.00;97821.38;5053224;28;20496;-76
2023/12/14 08:06:40;;;;;;;9.00;5.00;;;5.70;99.90;;;6.60;100.00;97827.06;5055289;28;20492;-76
2023/12/14 08:09:11;;;;;;;6.80;4.47;;;5.80;99.90;;;6.58;100.00;97831.63;5053157;28;21218;-76
2023/12/14 08:11:39;;;;;;;8.90;5.33;;;5.70;99.90;;;6.59;100.00;97841.84;5054563;28;20464;-76
2023/12/14 08:14:08;;;;;;;8.30;4.60;;;5.80;99.90;;;6.63;100.00;97847.50;5054271;28;21214;-76
2023/12/14 08:16:37;;;;;;;10.40;5.73;;;5.80;99.90;;;6.65;100.00;97844.75;5054376;28;20488;-76
2023/12/14 08:19:05;;;;;;;9.87;4.87;;;5.80;99.90;;;6.67;100.00;97853.19;5055016;28;20457;-76
2023/12/14 08:21:35;;;;;;;11.43;5.00;;;5.90;99.90;;;6.69;100.00;97866.81;5053678;28;20551;-76
2023/12/14 08:24:05;;;;;;;6.40;4.50;;;5.80;99.90;;;6.66;100.00;97859.38;5054536;28;20463;-76
2023/12/14 08:26:34;;;;;;;8.73;4.70;;;5.80;99.90;;;6.68;100.00;97875.59;5054630;28;20499;-76
2023/12/14 08:29:03;;;;;;;7.67;5.10;;;5.90;99.90;;;6.67;100.00;97879.97;5053549;28;20471;-76
2023/12/14 08:31:32;;;;;;;9.67;5.53;;;5.90;99.90;;;6.68;100.00;97880.78;5053506;28;20488;-76
2023/12/14 08:34:01;;;;;;;10.17;5.07;;;5.90;99.90;;;6.69;100.00;97885.81;5053293;28;20457;-76
2023/12/14 08:36:31;;;;;;;6.53;4.60;;;5.90;99.90;;;6.72;100.00;97887.28;5053713;28;20457;-77
2023/12/14 08:39:01;;;;;;;7.33;5.00;;;6.00;99.90;;;6.77;100.00;97896.19;5053696;28;21100;-76
2023/12/14 08:41:30;;;;;;;9.70;5.47;;;6.00;99.90;;;6.79;100.00;97903.81;5053430;28;20929;-76
2023/12/14 08:43:59;;;;;;;11.13;5.20;;;6.10;99.90;;;6.82;100.00;97904.31;5052890;28;20460;-76
2023/12/14 08:46:28;;;;;;;7.73;4.70;;;6.00;99.90;;;6.83;100.00;97911.13;5053119;28;20488;-76
2023/12/14 08:48:57;;;;;;;6.63;4.77;;;6.00;99.90;;;6.83;100.00;97912.91;5055746;28;20488;-76
2023/12/14 08:51:26;;;;;;;10.50;5.20;;;6.00;99.90;;;6.82;100.00;97916.47;5055785;28;20465;-76
2023/12/14 08:53:55;;;;;;;6.10;4.67;;;6.00;99.90;;;6.86;100.00;97915.16;5058725;28;20853;-76
2023/12/14 08:56:25;;;;;;;18.50;5.50;;;6.10;99.90;;;6.87;100.00;97927.19;5059505;28;20469;-76
2023/12/14 08:58:54;;;;;;;9.30;5.30;;;6.10;99.90;;;6.88;100.00;97940.00;5060062;28;20460;-76
2023/12/14 09:01:24;;;;;;;7.63;4.90;;;6.10;99.90;;;6.91;100.00;97944.88;5058045;28;20995;-76
2023/12/14 09:03:53;;;;;;;5.87;4.10;;;6.10;99.90;;;6.91;100.00;97944.88;5056767;28;20969;-76
2023/12/14 09:06:22;;;;;;;6.07;4.37;;;6.10;99.90;;;6.91;100.00;97946.66;5058676;28;20481;-77
2023/12/14 09:08:51;;;;;;;8.67;4.50;;;6.10;99.90;;;6.96;100.00;97944.38;5059373;28;20463;-76
2023/12/14 09:11:19;;;;;;;11.77;4.83;;;6.20;99.90;;;6.97;100.00;97964.22;5056812;28;20975;-76
2023/12/14 09:13:50;;;;;;;7.67;4.73;;;6.20;99.90;;;6.99;100.00;97957.03;5057913;28;20473;-76
2023/12/14 09:16:22;;;;;;;5.77;3.90;;;6.10;99.90;;;7.01;100.00;97965.50;5058155;28;20977;-78
2023/12/14 09:18:50;;;;;;;8.67;4.53;;;6.30;99.90;;;7.02;100.00;97969.69;5057788;28;20465;-76
2023/12/14 09:21:19;;;;;;;13.60;4.60;;;6.30;99.90;;;7.05;100.00;97979.75;5055913;28;20460;-77
2023/12/14 09:23:54;;;;;;;7.20;3.80;;;6.40;99.90;;;7.09;100.00;97983.66;5057896;28;20449;-76
2023/12/14 09:26:23;;;;;;;14.33;4.27;;;6.40;99.90;;;7.11;100.00;97981.72;5056705;28;20499;-76
2023/12/14 09:28:53;;;;;;;5.13;4.27;;;6.40;99.90;;;7.16;100.00;97994.19;5057265;28;20468;-77
2023/12/14 09:31:22;;;;;;;5.40;4.07;;;6.40;99.90;;;7.17;100.00;98001.84;5054803;28;20452;-77
2023/12/14 09:33:52;;;;;;;3.60;2.87;;;6.40;99.90;;;7.20;100.00;98005.91;5056758;28;21043;-76
2023/12/14 09:36:20;;;;;;;6.27;3.20;;;6.60;99.90;;;7.24;100.00;97999.38;5056719;28;20599;-77
2023/12/14 09:38:49;;;;;;;6.90;4.00;;;6.70;99.90;;;7.27;100.00;98005.06;5058337;28;20985;-76
2023/12/14 09:41:18;;;;;;;6.23;3.50;;;6.70;99.90;;;7.32;100.00;98010.59;5057341;28;20475;-77
2023/12/14 09:43:47;;;;;;;6.43;2.80;;;6.60;99.90;;;7.35;100.00;98025.03;5057679;28;20460;-76
2023/12/14 09:46:32;;;;;;;3.80;3.00;;;6.60;99.90;;;7.40;100.00;98020.94;5057123;28;20531;-76
2023/12/14 09:49:02;;;;;;;6.03;3.00;;;6.70;99.90;;;7.43;100.00;98014.59;5055033;28;20449;-76
2023/12/14 09:51:33;;;;;;;6.93;3.80;;;6.70;99.90;;;7.45;100.00;98021.28;5057330;28;20910;-76
2023/12/14 09:54:02;;;;;;;5.00;3.43;;;6.70;99.90;;;7.49;100.00;98029.56;5058637;28;20483;-76
2023/12/14 09:56:31;;;;;;;6.40;3.53;;;6.70;99.90;;;7.50;100.00;98024.16;5058351;28;20472;-76
2023/12/14 09:59:01;;;;;;;5.60;3.20;;;6.70;99.90;;;7.52;100.00;98026.63;5057590;28;20544;-76
2023/12/14 10:01:31;;;;;;;5.03;3.03;;;6.80;99.90;;;7.56;100.00;98025.31;5055111;28;20460;-76
2023/12/14 10:04:10;;;;;;;3.83;3.23;;;6.80;99.90;;;7.61;100.00;98033.41;5055902;28;20461;-76
2023/12/14 10:06:40;;;;;;;8.53;3.10;;;6.80;99.90;;;7.65;100.00;98039.06;5054090;28;20546;-76
2023/12/14 10:09:18;;;;;;;4.77;2.90;;;6.90;99.90;;;7.67;100.00;98030.13;5057723;28;20583;-76
2023/12/14 10:12:05;;;;;;;11.10;3.90;;;6.90;99.90;;;7.69;100.00;98032.56;5056593;28;20467;-76
2023/12/14 10:14:35;;;;;;;4.20;3.00;;;7.00;99.90;;;7.71;100.00;98033.19;5057214;28;20542;-76
2023/12/14 10:17:19;;;;;;;7.50;3.70;;;7.00;99.90;;;7.74;100.00;98038.88;5056382;28;20570;-76
2023/12/14 10:19:49;;;;;;;4.20;3.00;;;7.10;99.90;;;7.78;100.00;98044.53;5058129;28;20496;-76
2023/12/14 10:22:18;;;;;;;5.00;3.53;;;7.10;99.90;;;7.80;100.00;98042.59;5058104;28;20488;-76
2023/12/14 10:24:49;;;;;;;4.00;3.23;;;7.10;99.90;;;7.84;100.00;98052.53;5056457;28;20522;-76
2023/12/14 10:27:18;;;;;;;5.40;3.40;;;7.10;99.90;;;7.88;100.00;98053.78;5057831;28;20492;-76
2023/12/14 10:29:47;;;;;;;4.93;2.77;;;7.20;99.90;;;7.89;100.00;98045.00;5056480;28;20466;-76
2023/12/14 10:32:18;;;;;;;4.70;3.17;;;7.30;99.90;;;7.90;100.00;98056.22;5056914;28;20819;-76